Time;durP1;ratioP1;P1;durP2;ratioP2;P2;SDS_P1;SDS_P2;PMS_P1;PMS_P2;Temp;Humidity;BMP_temperature;BMP_pressure;BME280_temperature;BME280_humidity;BME280_pressure;Samples;Min_cycle;Max_cycle;Signal;HPM_P1;HPM_P2
2021/11/26 00:01:05;;;;;;;52.28;19.98;;;-0.20;99.90;;;;;;5035254;28;20048;-73
2021/11/26 00:03:37;;;;;;;54.95;19.63;;;-0.10;99.90;;;;;;5051926;28;20060;-73
2021/11/26 00:06:08;;;;;;;59.78;21.88;;;-0.10;99.90;;;;;;5050410;28;20140;-73
2021/11/26 00:08:35;;;;;;;54.15;18.95;;;-0.10;99.90;;;;;;5051477;28;20033;-72
2021/11/26 00:11:07;;;;;;;49.45;19.67;;;-0.10;99.90;;;;;;5052143;28;20037;-73
2021/11/26 00:13:43;;;;;;;51.83;18.58;;;-0.10;99.90;;;;;;5050096;28;20559;-73
2021/11/26 00:16:18;;;;;;;50.63;19.05;;;-0.10;99.90;;;;;;5051808;28;20512;-73
2021/11/26 00:18:57;;;;;;;47.95;19.58;;;0.00;99.90;;;;;;5049846;28;20462;-73
2021/11/26 00:21:24;;;;;;;53.60;21.50;;;0.00;99.90;;;;;;5037038;28;20148;-73
2021/11/26 00:23:51;;;;;;;53.55;20.70;;;0.00;99.90;;;;;;5051764;28;20072;-73
2021/11/26 00:26:23;;;;;;;52.08;20.80;;;0.00;99.90;;;;;;5052900;28;20044;-73
2021/11/26 00:28:50;;;;;;;54.22;20.67;;;0.00;99.90;;;;;;5051762;28;20083;-73
2021/11/26 00:31:22;;;;;;;54.67;20.17;;;0.00;99.90;;;;;;5050942;28;20052;-73
2021/11/26 00:33:49;;;;;;;54.45;20.30;;;0.00;99.90;;;;;;5050690;28;20083;-72
2021/11/26 00:36:20;;;;;;;60.90;22.02;;;0.00;99.90;;;;;;5035667;28;20479;-73
2021/11/26 00:38:52;;;;;;;55.90;21.73;;;0.00;99.90;;;;;;5051618;28;20136;-73
2021/11/26 00:41:19;;;;;;;56.25;22.25;;;0.10;99.90;;;;;;5051522;28;20132;-73
2021/11/26 00:43:46;;;;;;;62.67;20.52;;;0.10;99.90;;;;;;5051402;28;20037;-73
2021/11/26 00:46:13;;;;;;;56.17;20.02;;;0.10;99.90;;;;;;5051288;28;20084;-73
2021/11/26 00:48:45;;;;;;;54.92;20.48;;;0.00;99.90;;;;;;5051348;28;20132;-73
2021/11/26 00:51:12;;;;;;;60.97;21.05;;;0.00;99.90;;;;;;5051337;28;20069;-73
2021/11/26 00:53:44;;;;;;;49.40;19.80;;;0.00;99.90;;;;;;5051561;28;20036;-72
2021/11/26 00:56:11;;;;;;;52.47;21.00;;;0.00;99.90;;;;;;5034507;28;20054;-73
2021/11/26 00:58:43;;;;;;;50.75;18.85;;;0.00;99.90;;;;;;5051311;28;20094;-73
2021/11/26 01:01:15;;;;;;;55.13;20.83;;;-0.10;99.90;;;;;;5052386;28;20086;-73
2021/11/26 01:03:47;;;;;;;55.15;21.15;;;-0.10;99.90;;;;;;5051313;28;20487;-73
2021/11/26 01:06:14;;;;;;;51.80;19.67;;;-0.10;99.90;;;;;;5052083;28;20520;-73
2021/11/26 01:08:45;;;;;;;52.30;20.42;;;0.00;99.90;;;;;;5035091;28;20077;-73
2021/11/26 01:11:17;;;;;;;49.72;20.63;;;0.00;99.90;;;;;;5052171;28;20595;-73
2021/11/26 01:13:44;;;;;;;50.42;20.10;;;0.00;99.90;;;;;;5034451;28;20045;-73
2021/11/26 01:16:16;;;;;;;60.88;18.92;;;0.00;99.90;;;;;;5050831;28;20131;-72
2021/11/26 01:18:48;;;;;;;54.10;20.65;;;0.00;99.90;;;;;;5052130;28;20119;-73
2021/11/26 01:21:20;;;;;;;53.85;20.60;;;0.00;99.90;;;;;;5050824;28;20139;-72
2021/11/26 01:23:52;;;;;;;50.78;20.48;;;0.00;99.90;;;;;;5034886;28;20068;-73
2021/11/26 01:26:24;;;;;;;57.20;20.98;;;0.00;99.90;;;;;;5050556;28;20127;-73
2021/11/26 01:28:56;;;;;;;53.97;19.80;;;0.00;99.90;;;;;;5052091;28;20037;-73
2021/11/26 01:31:28;;;;;;;49.63;19.63;;;-0.10;99.90;;;;;;5056927;28;20567;-72
2021/11/26 01:34:00;;;;;;;51.95;18.88;;;-0.10;99.90;;;;;;5053437;28;20131;-73
2021/11/26 01:36:33;;;;;;;57.40;20.52;;;-0.10;99.90;;;;;;5034656;28;20041;-73
2021/11/26 01:39:01;;;;;;;57.03;21.08;;;-0.10;99.90;;;;;;5050499;28;20045;-73
2021/11/26 01:41:35;;;;;;;54.38;20.13;;;0.00;99.90;;;;;;5050459;28;20499;-73
2021/11/26 01:44:03;;;;;;;58.90;21.55;;;-0.10;99.90;;;;;;5049585;28;20563;-73
2021/11/26 01:46:43;;;;;;;67.32;23.05;;;-0.10;99.90;;;;;;5050263;28;20041;-73
2021/11/26 01:49:14;;;;;;;52.70;19.05;;;-0.10;99.90;;;;;;5050546;28;20460;-73
2021/11/26 01:51:45;;;;;;;55.35;19.48;;;-0.10;99.90;;;;;;5050445;28;20049;-73
2021/11/26 01:54:17;;;;;;;58.53;21.02;;;-0.10;99.90;;;;;;5049935;28;20136;-73
2021/11/26 01:56:44;;;;;;;50.72;20.55;;;0.00;99.90;;;;;;5049963;28;20095;-73
2021/11/26 01:59:16;;;;;;;60.13;21.05;;;-0.10;99.90;;;;;;5050124;28;20460;-73
2021/11/26 02:01:48;;;;;;;55.40;21.13;;;-0.10;99.90;;;;;;5050949;28;20128;-73
2021/11/26 02:04:20;;;;;;;56.55;20.05;;;-0.10;99.90;;;;;;5050975;28;20045;-73
2021/11/26 02:06:46;;;;;;;49.55;19.45;;;0.00;99.90;;;;;;5049453;28;20037;-73
2021/11/26 02:09:18;;;;;;;52.70;19.60;;;0.00;99.90;;;;;;5033723;28;20139;-73
2021/11/26 02:11:50;;;;;;;55.53;18.35;;;0.00;99.90;;;;;;5049387;28;20041;-73
2021/11/26 02:14:22;;;;;;;58.90;22.45;;;0.00;99.90;;;;;;5049369;28;20049;-72
2021/11/26 02:16:50;;;;;;;57.97;21.83;;;0.00;99.90;;;;;;5050500;28;20065;-73
2021/11/26 02:19:24;;;;;;;58.70;20.77;;;0.00;99.90;;;;;;5050871;28;20049;-73
2021/11/26 02:21:52;;;;;;;55.78;20.02;;;0.10;99.90;;;;;;5049591;28;20091;-73
2021/11/26 02:24:24;;;;;;;48.40;15.52;;;0.10;99.90;;;;;;5050217;28;20458;-73
2021/11/26 02:26:56;;;;;;;54.28;21.15;;;0.10;99.90;;;;;;5051188;28;20463;-73
2021/11/26 02:29:28;;;;;;;62.88;24.27;;;0.00;99.90;;;;;;5051381;28;20554;-72
2021/11/26 02:31:59;;;;;;;56.38;20.27;;;0.00;99.90;;;;;;5051257;28;20037;-73
2021/11/26 02:34:31;;;;;;;55.53;21.15;;;0.00;99.90;;;;;;5049317;28;20431;-73
2021/11/26 02:37:03;;;;;;;58.25;19.55;;;0.10;99.90;;;;;;5049372;28;20043;-72
2021/11/26 02:39:30;;;;;;;62.55;22.55;;;0.00;99.90;;;;;;5050721;28;20355;-73
2021/11/26 02:42:01;;;;;;;66.75;23.08;;;0.00;99.90;;;;;;5033151;28;20512;-73
2021/11/26 02:44:33;;;;;;;57.22;21.95;;;0.00;99.90;;;;;;5050629;28;20051;-73
2021/11/26 02:47:05;;;;;;;53.17;19.15;;;0.00;99.90;;;;;;5053723;28;20071;-73
2021/11/26 02:49:32;;;;;;;62.88;21.10;;;0.00;99.90;;;;;;5054818;28;20045;-73
2021/11/26 02:51:59;;;;;;;62.25;22.55;;;0.00;99.90;;;;;;5053372;28;20140;-73
2021/11/26 02:54:30;;;;;;;57.65;20.58;;;0.00;99.90;;;;;;5053559;28;20129;-73
2021/11/26 02:57:02;;;;;;;61.10;20.90;;;0.00;99.90;;;;;;5053412;28;20503;-73
2021/11/26 02:59:34;;;;;;;66.85;22.55;;;0.00;99.90;;;;;;5053636;28;20099;-73
2021/11/26 03:02:06;;;;;;;61.38;21.58;;;0.00;99.90;;;;;;5053370;28;20144;-73
2021/11/26 03:04:33;;;;;;;65.53;22.58;;;0.00;99.90;;;;;;5053308;28;20474;-73
2021/11/26 03:07:06;;;;;;;58.15;20.25;;;-0.10;99.90;;;;;;5054454;28;20044;-73
2021/11/26 03:09:38;;;;;;;64.25;22.02;;;-0.10;99.90;;;;;;5037493;28;20041;-73
2021/11/26 03:12:10;;;;;;;63.83;20.15;;;-0.10;99.90;;;;;;5053200;28;20132;-73
2021/11/26 03:14:42;;;;;;;61.53;21.17;;;-0.10;99.90;;;;;;5052795;28;20055;-73
2021/11/26 03:17:09;;;;;;;60.78;22.33;;;-0.10;99.90;;;;;;5054311;28;20041;-73
2021/11/26 03:19:41;;;;;;;67.13;22.40;;;-0.10;99.90;;;;;;5053203;28;20132;-73
2021/11/26 03:22:08;;;;;;;65.22;23.90;;;-0.10;99.90;;;;;;5052732;28;20119;-73
2021/11/26 03:24:35;;;;;;;68.03;21.23;;;-0.10;99.90;;;;;;5053036;28;20136;-73
2021/11/26 03:27:01;;;;;;;62.58;21.45;;;-0.10;99.90;;;;;;5052862;28;20143;-73
2021/11/26 03:29:28;;;;;;;61.97;21.27;;;-0.10;99.90;;;;;;5054177;28;20452;-73
2021/11/26 03:31:55;;;;;;;57.85;20.42;;;-0.10;99.90;;;;;;5052792;28;20080;-73
2021/11/26 03:34:27;;;;;;;68.82;23.35;;;-0.10;99.90;;;;;;5053943;28;20120;-73
2021/11/26 03:36:59;;;;;;;61.53;21.60;;;-0.10;99.90;;;;;;5052487;28;20143;-73
2021/11/26 03:39:26;;;;;;;65.43;22.25;;;-0.10;99.90;;;;;;5052773;28;20088;-73
2021/11/26 03:41:58;;;;;;;63.78;21.25;;;-0.10;99.90;;;;;;5053722;28;20033;-73
2021/11/26 03:44:30;;;;;;;64.50;21.63;;;-0.10;99.90;;;;;;5036986;28;20128;-73
2021/11/26 03:47:02;;;;;;;62.53;21.20;;;-0.10;99.90;;;;;;5052218;28;20149;-73
2021/11/26 03:49:34;;;;;;;66.35;21.20;;;0.00;99.90;;;;;;5053850;28;20037;-73
2021/11/26 03:52:06;;;;;;;67.20;22.15;;;-0.10;99.90;;;;;;5053506;28;20095;-73
2021/11/26 03:54:40;;;;;;;62.15;20.40;;;-0.10;99.90;;;;;;5053703;28;20041;-73
2021/11/26 03:57:13;;;;;;;65.05;22.70;;;-0.10;99.90;;;;;;5052354;28;20052;-73
2021/11/26 03:59:44;;;;;;;65.10;21.55;;;-0.10;99.90;;;;;;5052326;28;20480;-73
2021/11/26 04:02:16;;;;;;;68.63;22.15;;;-0.10;99.90;;;;;;5052322;28;20044;-73
2021/11/26 04:04:48;;;;;;;59.75;20.98;;;0.00;99.90;;;;;;5053405;28;20116;-73
2021/11/26 04:07:20;;;;;;;65.70;21.83;;;-0.10;99.90;;;;;;5051981;28;20045;-73
2021/11/26 04:09:51;;;;;;;64.05;22.15;;;-0.10;99.90;;;;;;5053373;28;20433;-73
2021/11/26 04:12:18;;;;;;;60.35;20.42;;;-0.10;99.90;;;;;;5052060;28;20131;-73
2021/11/26 04:14:51;;;;;;;61.70;21.30;;;-0.10;99.90;;;;;;5051767;28;20436;-73
2021/11/26 04:17:18;;;;;;;75.28;22.33;;;-0.10;99.90;;;;;;5035458;28;20464;-73
2021/11/26 04:19:50;;;;;;;56.97;21.48;;;-0.20;99.90;;;;;;5055194;28;20191;-73
2021/11/26 04:22:22;;;;;;;74.78;22.42;;;-0.10;99.90;;;;;;5038937;28;20120;-73
2021/11/26 04:24:54;;;;;;;65.22;20.83;;;-0.20;99.90;;;;;;5052237;28;20130;-73
2021/11/26 04:27:26;;;;;;;62.85;19.67;;;-0.20;99.90;;;;;;5053260;28;20488;-73
2021/11/26 04:29:52;;;;;;;69.07;22.42;;;-0.20;99.90;;;;;;5051964;28;20457;-73
2021/11/26 04:32:19;;;;;;;67.25;21.77;;;-0.20;99.90;;;;;;5051761;28;20144;-73
2021/11/26 04:34:51;;;;;;;64.03;19.80;;;-0.20;99.90;;;;;;5036868;28;20049;-73
2021/11/26 04:37:18;;;;;;;66.97;21.75;;;-0.20;99.90;;;;;;5047123;28;20123;-73
2021/11/26 04:39:51;;;;;;;59.72;24.67;;;-0.10;99.90;;;;;;5047247;28;20116;-73
2021/11/26 04:42:22;;;;;;;62.20;22.33;;;-0.10;99.90;;;;;;5043802;28;20503;-73
2021/11/26 04:44:54;;;;;;;64.63;22.13;;;-0.10;99.90;;;;;;5050933;28;20120;-73
2021/11/26 04:47:21;;;;;;;64.88;24.73;;;-0.10;99.90;;;;;;5051070;28;20044;-73
2021/11/26 04:49:48;;;;;;;63.55;21.15;;;-0.10;99.90;;;;;;5040596;28;20088;-73
2021/11/26 04:52:19;;;;;;;64.53;23.45;;;-0.10;99.90;;;;;;5038099;28;20037;-72
2021/11/26 04:54:52;;;;;;;59.97;21.85;;;0.20;99.90;;;;;;5049294;28;20083;-73
2021/11/26 04:57:23;;;;;;;62.58;23.50;;;0.20;99.90;;;;;;5034871;28;20618;-72
2021/11/26 04:59:55;;;;;;;71.57;24.70;;;0.20;99.90;;;;;;5051747;28;20120;-73
2021/11/26 05:02:27;;;;;;;80.03;33.45;;;0.10;99.90;;;;;;5040902;28;20142;-73
2021/11/26 05:04:59;;;;;;;68.03;22.15;;;0.10;99.90;;;;;;5063777;28;20055;-72
2021/11/26 05:07:31;;;;;;;61.58;22.23;;;0.00;99.90;;;;;;5049603;28;20132;-73
2021/11/26 05:09:59;;;;;;;67.40;23.05;;;0.00;99.90;;;;;;5013972;28;20061;-73
2021/11/26 05:12:36;;;;;;;60.45;19.58;;;-0.10;99.90;;;;;;5034769;28;20682;-76
2021/11/26 05:15:09;;;;;;;59.40;21.25;;;-0.10;99.90;;;;;;5014254;28;20079;-73
2021/11/26 05:17:42;;;;;;;56.63;21.55;;;-0.10;99.90;;;;;;5025182;28;20041;-73
2021/11/26 05:20:10;;;;;;;69.57;22.25;;;-0.10;99.90;;;;;;5049837;28;20575;-72
2021/11/26 05:22:37;;;;;;;63.53;21.77;;;-0.10;99.90;;;;;;5031678;28;20047;-72
2021/11/26 05:25:04;;;;;;;67.32;22.75;;;-0.20;99.90;;;;;;5049147;28;20403;-73
2021/11/26 05:27:36;;;;;;;70.78;21.25;;;-0.20;99.90;;;;;;5049474;28;20045;-73
2021/11/26 05:30:04;;;;;;;67.65;21.10;;;-0.20;99.90;;;;;;5049283;28;20463;-73
2021/11/26 05:32:37;;;;;;;74.28;23.05;;;-0.20;99.90;;;;;;5051015;28;20388;-73
2021/11/26 05:35:10;;;;;;;70.68;21.30;;;-0.20;99.90;;;;;;5050808;28;20094;-73
2021/11/26 05:37:42;;;;;;;71.97;21.27;;;-0.20;99.90;;;;;;5049845;28;20135;-72
2021/11/26 05:40:15;;;;;;;62.58;21.38;;;-0.20;99.90;;;;;;5049958;28;20037;-72
2021/11/26 05:42:48;;;;;;;65.97;22.83;;;-0.20;99.90;;;;;;5051102;28;20041;-73
2021/11/26 05:45:20;;;;;;;65.22;22.70;;;-0.20;99.90;;;;;;5050693;28;20033;-72
2021/11/26 05:47:52;;;;;;;64.18;23.60;;;-0.20;99.90;;;;;;5049930;28;20518;-72
2021/11/26 05:50:25;;;;;;;77.38;22.08;;;-0.20;99.90;;;;;;5033828;28;20052;-73
2021/11/26 05:52:57;;;;;;;61.78;21.58;;;-0.30;99.90;;;;;;5031780;28;20500;-73
2021/11/26 05:55:27;;;;;;;69.95;21.52;;;-0.30;99.90;;;;;;5049387;28;20077;-73
2021/11/26 05:58:00;;;;;;;70.10;20.98;;;-0.30;99.90;;;;;;5049976;28;20504;-72
2021/11/26 06:00:33;;;;;;;60.42;22.90;;;-0.30;99.90;;;;;;5049526;28;20464;-73
2021/11/26 06:03:05;;;;;;;73.65;22.00;;;-0.20;99.90;;;;;;5049619;28;20037;-73
2021/11/26 06:05:33;;;;;;;75.78;21.00;;;-0.30;99.90;;;;;;5049843;28;20128;-72
2021/11/26 06:07:59;;;;;;;64.18;20.15;;;-0.30;99.90;;;;;;5050692;28;20132;-73
2021/11/26 06:10:26;;;;;;;66.38;24.20;;;-0.20;99.90;;;;;;5049571;28;20468;-73
2021/11/26 06:12:58;;;;;;;71.97;23.15;;;-0.20;99.90;;;;;;5051092;28;20518;-73
2021/11/26 06:15:30;;;;;;;64.78;23.52;;;-0.20;99.90;;;;;;5049513;28;20124;-73
2021/11/26 06:18:02;;;;;;;65.22;23.17;;;-0.20;99.90;;;;;;5049642;28;20048;-73
2021/11/26 06:20:29;;;;;;;64.40;21.23;;;-0.20;99.90;;;;;;5051972;28;20555;-72
2021/11/26 06:23:01;;;;;;;69.25;20.52;;;-0.10;99.90;;;;;;5048555;28;20098;-72
2021/11/26 06:25:27;;;;;;;66.38;22.20;;;-0.10;99.90;;;;;;5052752;28;20048;-73
2021/11/26 06:27:59;;;;;;;62.88;20.27;;;-0.10;99.90;;;;;;5052506;28;20124;-73
2021/11/26 06:30:31;;;;;;;64.65;20.88;;;-0.10;99.90;;;;;;5052950;28;20682;-73
2021/11/26 06:32:58;;;;;;;66.10;22.35;;;-0.10;99.90;;;;;;5052902;28;20433;-73
2021/11/26 06:35:30;;;;;;;62.85;20.25;;;-0.10;99.90;;;;;;5052649;28;20041;-73
2021/11/26 06:38:02;;;;;;;65.85;22.08;;;-0.10;99.90;;;;;;5052715;28;20053;-73
2021/11/26 06:40:29;;;;;;;66.07;21.70;;;-0.10;99.90;;;;;;5054152;28;20291;-73
2021/11/26 06:42:56;;;;;;;63.63;20.77;;;-0.10;99.90;;;;;;5052638;28;20558;-72
2021/11/26 06:45:27;;;;;;;64.80;23.15;;;-0.10;99.90;;;;;;5052522;28;20431;-73
2021/11/26 06:47:59;;;;;;;65.93;21.73;;;-0.10;99.90;;;;;;5053078;28;20047;-73
2021/11/26 06:50:31;;;;;;;71.85;22.58;;;-0.10;99.90;;;;;;5052746;28;20051;-73
2021/11/26 06:53:03;;;;;;;61.83;21.58;;;-0.10;99.90;;;;;;5052600;28;20045;-72
2021/11/26 06:55:34;;;;;;;64.38;21.15;;;-0.10;99.90;;;;;;5036598;28;20045;-73
2021/11/26 06:58:06;;;;;;;68.72;20.42;;;-0.10;99.90;;;;;;5052430;28;20056;-73
2021/11/26 07:00:38;;;;;;;64.57;20.70;;;-0.20;99.90;;;;;;5053689;28;20496;-73
2021/11/26 07:03:10;;;;;;;72.57;31.20;;;-0.20;99.90;;;;;;5052091;28;20037;-73
2021/11/26 07:05:42;;;;;;;83.18;35.92;;;-0.20;99.90;;;;;;5052035;28;20051;-73
2021/11/26 07:08:08;;;;;;;67.47;23.60;;;-0.20;99.90;;;;;;5052294;28;20137;-73
2021/11/26 07:10:35;;;;;;;59.30;22.35;;;-0.20;99.90;;;;;;5055575;28;20053;-73
2021/11/26 07:13:07;;;;;;;61.55;20.60;;;-0.10;99.90;;;;;;5056218;28;20047;-73
2021/11/26 07:15:34;;;;;;;70.15;23.65;;;-0.10;99.90;;;;;;5052358;28;20574;-73
2021/11/26 07:18:02;;;;;;;58.42;19.80;;;-0.20;99.90;;;;;;5052428;28;20144;-72
2021/11/26 07:20:34;;;;;;;55.63;20.33;;;-0.20;99.90;;;;;;5052396;28;20092;-73
2021/11/26 07:23:07;;;;;;;54.63;19.23;;;-0.20;99.90;;;;;;5053568;28;20043;-73
2021/11/26 07:25:39;;;;;;;64.00;21.15;;;-0.20;99.90;;;;;;5052356;28;20047;-73
2021/11/26 07:28:10;;;;;;;64.72;21.50;;;-0.10;99.90;;;;;;5053588;28;20049;-73
2021/11/26 07:30:42;;;;;;;59.60;22.08;;;-0.10;99.90;;;;;;5052105;28;20043;-72
2021/11/26 07:33:09;;;;;;;67.15;24.25;;;-0.10;99.90;;;;;;5053333;28;20045;-72
2021/11/26 07:35:41;;;;;;;51.60;18.30;;;-0.10;99.90;;;;;;5052999;28;20143;-70
2021/11/26 07:38:12;;;;;;;53.40;19.92;;;-0.10;99.90;;;;;;5053004;28;20037;-72
2021/11/26 07:40:39;;;;;;;62.72;20.80;;;-0.10;99.90;;;;;;5052499;28;20076;-72
2021/11/26 07:43:11;;;;;;;52.95;18.52;;;0.00;99.90;;;;;;5052669;28;20136;-73
2021/11/26 07:45:43;;;;;;;53.90;18.33;;;0.00;99.90;;;;;;5053276;28;20178;-73
2021/11/26 07:48:15;;;;;;;58.28;20.08;;;0.00;99.90;;;;;;5052345;28;20036;-72
2021/11/26 07:50:42;;;;;;;55.25;18.45;;;0.00;99.90;;;;;;5034559;28;20045;-72
2021/11/26 07:53:13;;;;;;;46.80;17.40;;;0.00;99.90;;;;;;5051602;28;20060;-72
2021/11/26 07:55:45;;;;;;;50.72;18.23;;;0.00;99.90;;;;;;5051538;28;20045;-71
2021/11/26 07:58:17;;;;;;;47.50;18.27;;;0.00;99.90;;;;;;5051687;28;20076;-72
2021/11/26 08:00:49;;;;;;;51.90;18.33;;;-0.10;99.90;;;;;;5052707;28;20056;-72
2021/11/26 08:03:22;;;;;;;58.25;18.33;;;-0.10;99.90;;;;;;5051402;28;20047;-73
2021/11/26 08:05:56;;;;;;;56.43;21.57;;;-0.10;99.90;;;;;;5035289;28;20131;-72
2021/11/26 08:08:27;;;;;;;49.10;18.88;;;-0.10;99.90;;;;;;5051217;28;20383;-72
2021/11/26 08:11:00;;;;;;;60.63;19.58;;;-0.20;99.90;;;;;;5051458;28;20037;-73
2021/11/26 08:13:32;;;;;;;57.60;19.17;;;-0.20;99.90;;;;;;5051332;28;20148;-73
2021/11/26 08:15:58;;;;;;;47.58;17.00;;;-0.10;99.90;;;;;;5050683;28;20127;-73
2021/11/26 08:18:31;;;;;;;51.70;18.98;;;-0.10;99.90;;;;;;5052424;28;20128;-73
2021/11/26 08:21:03;;;;;;;40.90;13.90;;;-0.10;99.90;;;;;;5052367;28;20136;-73
2021/11/26 08:23:35;;;;;;;49.53;17.38;;;0.00;99.90;;;;;;5050959;28;20465;-73
2021/11/26 08:26:07;;;;;;;44.72;18.13;;;0.00;99.90;;;;;;5050608;28;20178;-73
2021/11/26 08:28:34;;;;;;;48.45;16.73;;;0.00;99.90;;;;;;5051126;28;20076;-73
2021/11/26 08:31:06;;;;;;;45.13;16.52;;;0.00;99.90;;;;;;5035043;28;20483;-73
2021/11/26 08:33:33;;;;;;;50.08;17.52;;;0.10;99.90;;;;;;5052113;28;20131;-73
2021/11/26 08:36:05;;;;;;;44.38;16.00;;;0.10;99.90;;;;;;5050592;28;20052;-73
2021/11/26 08:38:31;;;;;;;42.08;16.70;;;0.10;99.90;;;;;;5050883;28;20385;-73
2021/11/26 08:40:58;;;;;;;50.17;18.15;;;0.10;99.90;;;;;;5050775;28;20139;-73
2021/11/26 08:43:31;;;;;;;48.70;20.05;;;0.10;99.90;;;;;;5049968;28;20037;-73
2021/11/26 08:45:57;;;;;;;51.50;18.25;;;0.20;99.90;;;;;;5049264;28;20048;-73
2021/11/26 08:48:29;;;;;;;48.90;18.15;;;0.20;99.90;;;;;;5051916;28;20044;-73
2021/11/26 08:51:01;;;;;;;47.33;17.20;;;0.20;99.90;;;;;;5034610;28;20065;-73
2021/11/26 08:53:29;;;;;;;43.70;17.17;;;0.20;99.90;;;;;;5051730;28;20041;-73
2021/11/26 08:56:00;;;;;;;54.10;20.13;;;0.20;99.90;;;;;;5051469;28;20052;-73
2021/11/26 08:58:34;;;;;;;42.78;16.45;;;0.30;99.90;;;;;;5050379;28;20076;-73
2021/11/26 09:01:07;;;;;;;45.25;17.25;;;0.30;99.90;;;;;;5050277;28;20049;-73
2021/11/26 09:03:39;;;;;;;49.58;18.23;;;0.40;99.90;;;;;;5050097;28;20048;-73
2021/11/26 09:06:11;;;;;;;39.13;16.50;;;0.30;99.90;;;;;;5049832;28;20043;-73
2021/11/26 09:08:43;;;;;;;48.47;17.83;;;0.30;99.90;;;;;;5051353;28;20045;-73
2021/11/26 09:11:11;;;;;;;37.50;15.00;;;0.40;99.90;;;;;;5049971;28;20139;-73
2021/11/26 09:13:38;;;;;;;44.30;16.25;;;0.30;99.90;;;;;;5049688;28;20110;-73
2021/11/26 09:16:05;;;;;;;41.75;15.13;;;0.40;99.90;;;;;;5032754;28;20143;-73
2021/11/26 09:18:37;;;;;;;39.70;15.52;;;0.40;99.90;;;;;;5049799;28;20049;-73
2021/11/26 09:21:04;;;;;;;41.58;16.77;;;0.40;99.90;;;;;;5051312;28;20045;-73
2021/11/26 09:23:32;;;;;;;45.33;16.00;;;0.50;99.90;;;;;;5049765;28;20055;-74
2021/11/26 09:26:05;;;;;;;43.60;18.25;;;0.40;99.90;;;;;;5033791;28;20041;-73
2021/11/26 09:28:32;;;;;;;43.10;15.60;;;0.50;99.90;;;;;;5049991;28;20072;-73
2021/11/26 09:31:04;;;;;;;39.45;16.52;;;0.40;99.90;;;;;;5048627;28;20041;-73
2021/11/26 09:33:35;;;;;;;43.63;19.63;;;0.50;99.90;;;;;;5049625;28;20083;-73
2021/11/26 09:36:08;;;;;;;36.10;16.65;;;0.40;99.90;;;;;;5050539;28;20045;-73
2021/11/26 09:38:42;;;;;;;44.40;20.30;;;0.50;99.90;;;;;;5033857;28;20136;-73
2021/11/26 09:41:15;;;;;;;53.10;23.73;;;0.50;99.90;;;;;;5049412;28;20041;-73
2021/11/26 09:43:43;;;;;;;36.35;14.80;;;0.50;99.90;;;;;;5049518;28;20139;-72
2021/11/26 09:46:10;;;;;;;40.70;14.48;;;0.50;99.90;;;;;;5051382;28;20120;-73
2021/11/26 09:48:37;;;;;;;52.67;20.77;;;0.50;99.90;;;;;;5057558;28;20043;-72
2021/11/26 09:51:05;;;;;;;50.00;21.15;;;0.50;99.90;;;;;;5070286;28;20462;-72
2021/11/26 09:53:34;;;;;;;45.67;19.05;;;0.50;99.90;;;;;;5054146;28;20083;-72
2021/11/26 09:56:10;;;;;;;40.78;18.65;;;0.50;99.90;;;;;;5049909;28;20065;-73
2021/11/26 09:58:42;;;;;;;50.17;18.48;;;0.60;99.90;;;;;;5059585;28;20055;-71
2021/11/26 10:01:14;;;;;;;36.85;13.98;;;0.60;99.90;;;;;;5060739;28;20132;-73
2021/11/26 10:03:50;;;;;;;40.40;19.63;;;0.70;99.90;;;;;;5067994;28;20499;-73
2021/11/26 10:06:41;;;;;;;39.22;17.35;;;0.70;99.90;;;;;;5051252;28;20662;-72
2021/11/26 10:09:22;;;;;;;32.20;16.25;;;0.80;99.90;;;;;;5067499;28;20124;-73
2021/11/26 10:11:54;;;;;;;30.27;12.43;;;1.00;99.90;;;;;;5056169;28;20036;-73
2021/11/26 10:14:24;;;;;;;36.83;14.02;;;0.90;99.90;;;;;;5070786;28;20036;-73
2021/11/26 10:17:13;;;;;;;39.42;18.70;;;0.90;99.90;;;;;;5046009;28;20081;-73
2021/11/26 10:19:51;;;;;;;39.60;16.42;;;0.80;99.90;;;;;;5040468;28;20119;-73
2021/11/26 10:22:24;;;;;;;42.55;20.10;;;0.90;99.90;;;;;;5059055;28;20049;-73
2021/11/26 10:25:16;;;;;;;21.00;10.03;;;0.90;99.90;;;;;;5050429;28;20123;-73
2021/11/26 10:27:50;;;;;;;35.90;14.40;;;0.80;99.90;;;;;;5063973;28;20051;-73
2021/11/26 10:30:45;;;;;;;38.88;16.20;;;0.70;99.90;;;;;;5070467;28;20048;-73
2021/11/26 10:33:17;;;;;;;37.67;17.13;;;0.70;99.90;;;;;;5034902;28;20072;-73
2021/11/26 10:35:50;;;;;;;36.80;13.77;;;0.70;99.90;;;;;;5050118;28;20443;-73
2021/11/26 10:38:44;;;;;;;46.15;21.27;;;0.80;99.90;;;;;;5064219;28;20064;-73
2021/11/26 10:41:25;;;;;;;33.10;13.98;;;0.80;99.90;;;;;;5060872;28;20136;-73
2021/11/26 10:44:06;;;;;;;31.85;13.27;;;0.80;99.90;;;;;;5064032;28;20481;-73
2021/11/26 10:49:36;;;;;;;37.92;14.25;;;0.80;99.90;;;;;;5069021;28;20040;-72
2021/11/26 10:52:43;;;;;;;36.15;14.95;;;0.90;99.90;;;;;;5068793;28;20078;-72
2021/11/26 10:58:35;;;;;;;35.17;13.35;;;1.00;99.90;;;;;;5066060;28;20556;-73
2021/11/26 11:01:06;;;;;;;38.45;14.65;;;1.10;99.90;;;;;;5049038;28;20060;-73
2021/11/26 11:03:38;;;;;;;32.67;14.15;;;1.00;99.90;;;;;;5060695;28;20071;-73
2021/11/26 11:06:21;;;;;;;37.28;16.15;;;1.00;99.90;;;;;;5054168;28;20399;-72
2021/11/26 11:09:06;;;;;;;37.27;15.37;;;0.90;99.90;;;;;;5052537;28;20135;-73
2021/11/26 11:11:52;;;;;;;36.90;14.80;;;0.80;99.90;;;;;;5052111;28;20144;-73
2021/11/26 11:14:25;;;;;;;33.65;13.45;;;0.80;99.90;;;;;;5033036;28;20091;-73
2021/11/26 11:16:58;;;;;;;36.72;16.13;;;0.90;99.90;;;;;;5033631;28;20591;-73
2021/11/26 11:19:31;;;;;;;31.75;13.80;;;0.90;99.90;;;;;;5034065;28;20107;-72
2021/11/26 11:22:03;;;;;;;32.92;14.88;;;0.90;99.90;;;;;;5016946;28;20056;-72
2021/11/26 11:24:30;;;;;;;30.73;12.27;;;1.00;99.90;;;;;;5032578;28;20431;-72
2021/11/26 11:27:02;;;;;;;34.97;13.63;;;1.00;99.90;;;;;;5016454;28;20510;-72
2021/11/26 11:29:34;;;;;;;40.17;17.48;;;1.00;99.90;;;;;;5033895;28;20506;-72
2021/11/26 11:32:06;;;;;;;37.55;14.43;;;1.10;99.90;;;;;;5033678;28;20599;-73
2021/11/26 11:34:40;;;;;;;35.50;14.82;;;1.10;99.90;;;;;;5032343;28;20046;-73
2021/11/26 11:37:17;;;;;;;39.38;15.38;;;1.10;99.90;;;;;;5033313;28;20128;-73
2021/11/26 11:39:52;;;;;;;26.30;11.30;;;1.10;99.90;;;;;;5016711;28;20475;-73
2021/11/26 11:42:28;;;;;;;28.45;12.52;;;1.20;99.90;;;;;;5016355;28;20167;-73
2021/11/26 11:45:08;;;;;;;26.13;11.73;;;1.10;99.90;;;;;;5039884;28;20047;-73
2021/11/26 11:47:43;;;;;;;26.98;11.13;;;1.10;99.90;;;;;;5036211;28;20104;-72
2021/11/26 11:50:28;;;;;;;28.33;12.55;;;1.10;99.90;;;;;;5051866;28;20072;-72
2021/11/26 11:53:01;;;;;;;33.20;13.50;;;1.10;99.90;;;;;;5047708;28;20124;-73
2021/11/26 11:55:37;;;;;;;34.40;13.48;;;1.10;99.90;;;;;;5031738;28;20129;-73
2021/11/26 11:58:13;;;;;;;31.73;14.18;;;1.10;99.90;;;;;;5033268;28;20049;-72
2021/11/26 12:00:48;;;;;;;36.90;14.05;;;1.10;99.90;;;;;;5039478;28;20116;-73
2021/11/26 12:03:27;;;;;;;34.80;15.25;;;1.10;99.90;;;;;;5031397;28;20535;-73
2021/11/26 12:06:04;;;;;;;33.22;14.48;;;1.10;99.90;;;;;;5015852;28;20136;-73
2021/11/26 12:08:45;;;;;;;31.58;15.38;;;1.10;99.90;;;;;;5033360;28;20072;-73
2021/11/26 12:11:29;;;;;;;33.65;14.70;;;1.20;99.90;;;;;;5031897;28;20486;-73
2021/11/26 12:14:07;;;;;;;32.65;14.68;;;1.10;99.90;;;;;;5032259;28;20040;-72
2021/11/26 12:17:15;;;;;;;35.55;16.00;;;1.10;99.90;;;;;;5033044;28;20044;-73
2021/11/26 12:19:43;;;;;;;40.00;16.60;;;1.10;99.90;;;;;;5032996;28;20116;-73
2021/11/26 12:22:20;;;;;;;36.57;17.07;;;1.10;99.90;;;;;;5030795;28;20044;-72
2021/11/26 12:24:56;;;;;;;35.65;18.10;;;1.00;99.90;;;;;;5031002;28;20042;-72
2021/11/26 12:27:37;;;;;;;33.53;15.07;;;1.10;99.90;;;;;;5031257;28;20497;-72
2021/11/26 12:30:19;;;;;;;40.55;17.85;;;1.10;99.90;;;;;;5031110;28;20042;-73
2021/11/26 12:32:51;;;;;;;38.22;15.75;;;1.10;99.90;;;;;;5030088;28;20042;-72
2021/11/26 12:35:18;;;;;;;34.63;14.45;;;1.20;99.90;;;;;;5030545;28;20132;-73
2021/11/26 12:37:56;;;;;;;43.45;18.10;;;1.20;99.90;;;;;;5030337;28;20049;-73
2021/11/26 12:40:24;;;;;;;39.05;15.32;;;1.10;99.90;;;;;;5046321;28;20518;-72
2021/11/26 12:43:01;;;;;;;31.90;12.87;;;1.10;99.90;;;;;;5050698;28;20123;-73
2021/11/26 12:45:34;;;;;;;38.10;16.27;;;1.10;99.90;;;;;;5030620;28;20399;-72
2021/11/26 12:53:28;;;;;;;44.78;17.30;;;1.10;99.90;;;;;;5052714;28;20128;-73
2021/11/26 12:56:06;;;;;;;37.30;15.63;;;1.10;99.90;;;;;;5034280;28;20139;-73
2021/11/26 12:58:43;;;;;;;37.58;15.65;;;1.00;99.90;;;;;;5050229;28;20045;-73
2021/11/26 13:01:15;;;;;;;35.88;14.75;;;1.00;99.90;;;;;;5050390;28;20041;-72
2021/11/26 13:03:45;;;;;;;38.65;16.67;;;1.00;99.90;;;;;;5050084;28;20143;-73
2021/11/26 13:06:12;;;;;;;46.92;19.27;;;1.10;99.90;;;;;;5049924;28;20131;-72
2021/11/26 13:08:44;;;;;;;41.17;16.83;;;1.10;99.90;;;;;;5050973;28;20124;-73